Terminal Aerodrome Forecast
Issued by NWS

Home | Current Version | Previous Version | Text Only | Print | Product List | Glossary On
Versions: 1 2 3 4 5 6 7 8 9 10 11 12 13 14
000
FTUS45 KRIW 021122
TAFRKS
TAF
KRKS 021122Z 0212/0312 06008KT P6SM FEW150 SCT250
     FM022000 29008KT P6SM SCT100
     FM030300 06013KT P6SM SCT100=

USA.gov is the U.S. government's official web portal to all federal, state and local government web resources and services.